Time;durP1;ratioP1;P1;durP2;ratioP2;P2;SDS_P1;SDS_P2;PMS_P1;PMS_P2;Temp;Humidity;BMP_temperature;BMP_pressure;BME280_temperature;BME280_humidity;BME280_pressure;Samples;Min_cycle;Max_cycle;Signal;HPM_P1;HPM_P2
2022/02/01 00:00:32;;;;;;;4.65;2.78;;;;;;;;;;4973734;29;20061;-82
2022/02/01 00:03:01;;;;;;;5.35;2.78;;;;;;;;;;4972821;28;20055;-81
2022/02/01 00:05:34;;;;;;;6.32;2.88;;;;;;;;;;4972845;28;20047;-81
2022/02/01 00:08:10;;;;;;;5.18;2.95;;;;;;;;;;4972517;28;20048;-81
2022/02/01 00:10:46;;;;;;;4.97;2.80;;;;;;;;;;4972838;28;20083;-79
2022/02/01 00:13:24;;;;;;;4.32;2.47;;;;;;;;;;4969987;28;20081;-79
2022/02/01 00:18:47;;;;;;;4.28;2.38;;;;;;;;;;4948950;28;20094;-82
2022/02/01 00:35:20;;;;;;;4.43;2.35;;;;;;;;;;4967281;29;20102;-82
2022/02/01 00:38:01;;;;;;;5.03;2.90;;;;;;;;;;4968113;29;20539;-79
2022/02/01 00:40:28;;;;;;;8.15;3.45;;;;;;;;;;4966860;28;20078;-82
2022/02/01 00:42:55;;;;;;;5.10;2.95;;;;;;;;;;4968494;28;20059;-82
2022/02/01 00:45:25;;;;;;;5.43;2.60;;;;;;;;;;4967900;28;20059;-81
2022/02/01 00:47:53;;;;;;;5.47;2.67;;;;;;;;;;4967293;28;20055;-82
2022/02/01 00:50:20;;;;;;;5.82;2.42;;;;;;;;;;4967971;28;20055;-79
2022/02/01 00:52:47;;;;;;;4.85;2.30;;;;;;;;;;4966227;28;20140;-79
2022/02/01 00:55:13;;;;;;;4.57;2.20;;;;;;;;;;4966647;28;20066;-79
2022/02/01 00:57:40;;;;;;;3.97;2.15;;;;;;;;;;4966122;28;20058;-81
2022/02/01 01:00:11;;;;;;;4.13;1.80;;;;;;;;;;4960661;28;20055;-82
2022/02/01 01:02:38;;;;;;;4.45;2.20;;;;;;;;;;4958831;28;20109;-80
2022/02/01 01:05:08;;;;;;;3.78;1.92;;;;;;;;;;4958617;28;20061;-80
2022/02/01 01:07:35;;;;;;;3.90;1.90;;;;;;;;;;4958655;28;20051;-79
2022/02/01 01:10:04;;;;;;;3.55;1.90;;;;;;;;;;4979070;28;20052;-79
2022/02/01 01:12:34;;;;;;;3.20;1.58;;;;;;;;;;4970898;28;20483;-80
2022/02/01 01:15:15;;;;;;;3.58;1.77;;;;;;;;;;4966434;29;20082;-79
2022/02/01 01:18:12;;;;;;;4.32;1.90;;;;;;;;;;4963054;28;20124;-80
2022/02/01 01:45:28;;;;;;;4.32;2.25;;;;;;;;;;4969424;29;20566;-80
2022/02/01 01:53:25;;;;;;;5.72;2.58;;;;;;;;;;4960188;29;20489;-79
2022/02/01 01:55:54;;;;;;;6.30;3.13;;;;;;;;;;4959526;29;20055;-80
2022/02/01 01:58:21;;;;;;;5.03;2.75;;;;;;;;;;4959526;28;20095;-80
2022/02/01 02:03:35;;;;;;;6.28;3.50;;;;;;;;;;4945801;28;20071;-79
2022/02/01 02:06:02;;;;;;;6.00;3.50;;;;;;;;;;4959497;28;20122;-81
2022/02/01 02:08:31;;;;;;;6.70;3.20;;;;;;;;;;4958997;29;20106;-80
2022/02/01 02:11:03;;;;;;;7.22;4.15;;;;;;;;;;4959539;28;20050;-80
2022/02/01 02:16:14;;;;;;;7.78;4.07;;;;;;;;;;4959705;29;20134;-81
2022/02/01 02:18:42;;;;;;;7.75;4.70;;;;;;;;;;4958810;28;20494;-81
2022/02/01 02:21:10;;;;;;;8.10;4.88;;;;;;;;;;4959569;28;20458;-80
2022/02/01 02:23:37;;;;;;;7.55;4.25;;;;;;;;;;4959195;28;20051;-81
2022/02/01 02:26:07;;;;;;;7.68;4.10;;;;;;;;;;4958751;28;20051;-81
2022/02/01 02:28:35;;;;;;;7.10;4.32;;;;;;;;;;4958803;29;20152;-80
2022/02/01 02:31:02;;;;;;;7.63;4.43;;;;;;;;;;4958282;29;20058;-79
2022/02/01 02:33:31;;;;;;;8.20;4.55;;;;;;;;;;4958047;28;20391;-81
2022/02/01 02:36:04;;;;;;;8.23;4.90;;;;;;;;;;4958481;29;20055;-80
2022/02/01 02:38:38;;;;;;;11.45;5.40;;;;;;;;;;4960084;29;20047;-80
2022/02/01 02:41:24;;;;;;;8.38;4.40;;;;;;;;;;4965586;29;20079;-80
2022/02/01 02:46:39;;;;;;;6.93;4.05;;;;;;;;;;4964831;29;20502;-80
2022/02/01 02:49:06;;;;;;;9.07;5.13;;;;;;;;;;4964476;29;20110;-81
2022/02/01 02:51:34;;;;;;;8.55;4.90;;;;;;;;;;4964747;29;20094;-80
2022/02/01 02:54:05;;;;;;;9.55;4.70;;;;;;;;;;4970070;29;20047;-80
2022/02/01 02:56:32;;;;;;;10.90;4.97;;;;;;;;;;4975393;29;20055;-80
2022/02/01 02:58:59;;;;;;;8.27;5.13;;;;;;;;;;4975032;29;20051;-80
2022/02/01 03:01:26;;;;;;;10.52;5.80;;;;;;;;;;4974801;29;20047;-80
2022/02/01 03:03:53;;;;;;;9.02;4.75;;;;;;;;;;4969804;28;20047;-80
2022/02/01 03:06:21;;;;;;;10.25;5.40;;;;;;;;;;4965271;29;20057;-81
2022/02/01 03:08:48;;;;;;;8.38;5.32;;;;;;;;;;4964518;29;20742;-81
2022/02/01 03:11:16;;;;;;;10.23;5.70;;;;;;;;;;4967088;29;20410;-81
2022/02/01 03:13:49;;;;;;;10.95;5.35;;;;;;;;;;4966304;28;20055;-81
2022/02/01 03:16:31;;;;;;;10.80;5.60;;;;;;;;;;4967766;28;20058;-81
2022/02/01 03:21:42;;;;;;;9.10;5.10;;;;;;;;;;4969600;29;20066;-80
2022/02/01 03:24:08;;;;;;;11.23;5.20;;;;;;;;;;4969840;29;20059;-80
2022/02/01 03:26:37;;;;;;;10.05;5.10;;;;;;;;;;4969885;29;20051;-80
2022/02/01 03:29:04;;;;;;;10.00;5.05;;;;;;;;;;4971254;28;20071;-81
2022/02/01 03:31:31;;;;;;;10.13;5.32;;;;;;;;;;4968451;28;20422;-80
2022/02/01 03:33:57;;;;;;;9.43;5.28;;;;;;;;;;4969769;29;20058;-80
2022/02/01 03:36:25;;;;;;;9.00;4.57;;;;;;;;;;4968120;28;20070;-80
2022/02/01 03:38:52;;;;;;;8.38;4.88;;;;;;;;;;4967424;29;20478;-80
2022/02/01 03:41:20;;;;;;;9.70;5.00;;;;;;;;;;4968485;28;20667;-80
2022/02/01 03:43:48;;;;;;;9.93;4.78;;;;;;;;;;4969852;29;20058;-80
2022/02/01 03:46:15;;;;;;;10.25;4.93;;;;;;;;;;4968693;29;20063;-80
2022/02/01 03:48:42;;;;;;;10.82;5.60;;;;;;;;;;4967716;29;20117;-80
2022/02/01 03:51:09;;;;;;;14.05;7.28;;;;;;;;;;4968583;29;20055;-80
2022/02/01 03:53:36;;;;;;;10.73;5.90;;;;;;;;;;4968439;29;20047;-80
2022/02/01 03:58:28;;;;;;;13.05;6.55;;;;;;;;;;5040111;23;20045;-58
2022/02/01 04:00:57;;;;;;;10.95;5.88;;;;;;;;;;5015619;28;20052;-57
2022/02/01 04:03:24;;;;;;;11.63;5.95;;;;;;;;;;5015571;28;20072;-59
2022/02/01 04:05:51;;;;;;;11.30;5.43;;;;;;;;;;5015591;28;20046;-58
2022/02/01 04:08:19;;;;;;;11.93;6.05;;;;;;;;;;5015234;28;20142;-60
2022/02/01 04:10:49;;;;;;;13.10;6.63;;;;;;;;;;5016156;28;20083;-59
2022/02/01 04:13:16;;;;;;;11.20;6.03;;;;;;;;;;5015458;28;20050;-59
2022/02/01 04:15:43;;;;;;;14.05;6.88;;;;;;;;;;5015593;28;20049;-59
2022/02/01 04:18:12;;;;;;;15.30;7.28;;;;;;;;;;5015259;28;20498;-59
2022/02/01 04:20:39;;;;;;;15.18;6.97;;;;;;;;;;5015125;28;20104;-59
2022/02/01 04:23:06;;;;;;;12.98;6.13;;;;;;;;;;5015356;28;20077;-60
2022/02/01 04:25:33;;;;;;;14.95;7.50;;;;;;;;;;5015263;28;20052;-60
2022/02/01 04:28:00;;;;;;;13.02;7.13;;;;;;;;;;5015120;28;20046;-60
2022/02/01 04:30:27;;;;;;;16.88;7.13;;;;;;;;;;5015317;28;20046;-59
2022/02/01 04:32:56;;;;;;;14.73;6.35;;;;;;;;;;5015189;28;20053;-58
2022/02/01 04:35:27;;;;;;;14.20;6.70;;;;;;;;;;5015158;28;20046;-59
2022/02/01 04:37:55;;;;;;;12.20;5.85;;;;;;;;;;5014908;28;20058;-58
2022/02/01 04:40:24;;;;;;;13.27;6.55;;;;;;;;;;5014988;28;20558;-58
2022/02/01 04:42:51;;;;;;;13.75;6.72;;;;;;;;;;5014846;28;20077;-59
2022/02/01 04:45:20;;;;;;;13.75;6.20;;;;;;;;;;5015035;28;20120;-57
2022/02/01 04:47:48;;;;;;;17.40;6.95;;;;;;;;;;5014484;28;20115;-59
2022/02/01 04:50:18;;;;;;;12.45;5.63;;;;;;;;;;5015156;28;20511;-59
2022/02/01 04:52:49;;;;;;;12.52;5.70;;;;;;;;;;5015259;28;20081;-57
2022/02/01 04:55:17;;;;;;;12.43;5.20;;;;;;;;;;5014964;28;20121;-59
2022/02/01 04:57:53;;;;;;;11.93;6.25;;;;;;;;;;5014467;28;20447;-60
2022/02/01 05:00:23;;;;;;;11.15;5.60;;;;;;;;;;5014773;28;20054;-58
2022/02/01 05:02:50;;;;;;;12.43;5.90;;;;;;;;;;5014800;28;20108;-59
2022/02/01 05:05:20;;;;;;;12.32;5.70;;;;;;;;;;5014650;28;20049;-58
2022/02/01 05:07:49;;;;;;;12.02;6.00;;;;;;;;;;5014174;28;20090;-59
2022/02/01 05:10:16;;;;;;;14.77;6.68;;;;;;;;;;5014353;28;20053;-59
2022/02/01 05:12:43;;;;;;;14.15;6.45;;;;;;;;;;5014405;28;20478;-59
2022/02/01 05:15:10;;;;;;;11.25;5.57;;;;;;;;;;5014372;28;20078;-57
2022/02/01 05:17:40;;;;;;;13.65;6.85;;;;;;;;;;5014050;28;20045;-59
2022/02/01 05:20:25;;;;;;;12.98;7.05;;;;;;;;;;5013987;28;20054;-59
2022/02/01 05:22:54;;;;;;;13.30;5.88;;;;;;;;;;5014410;28;20061;-57
2022/02/01 05:25:27;;;;;;;14.13;6.35;;;;;;;;;;5014770;28;20123;-58
2022/02/01 05:27:57;;;;;;;14.20;6.05;;;;;;;;;;5014414;28;20443;-60
2022/02/01 05:30:24;;;;;;;15.90;6.90;;;;;;;;;;5014140;28;20052;-59
2022/02/01 05:32:51;;;;;;;12.98;6.03;;;;;;;;;;5014042;28;20487;-59
2022/02/01 05:35:18;;;;;;;13.50;5.63;;;;;;;;;;5014403;28;20074;-61
2022/02/01 05:37:45;;;;;;;12.85;5.30;;;;;;;;;;5013951;28;20089;-61
2022/02/01 05:40:15;;;;;;;13.75;5.85;;;;;;;;;;5013765;28;20077;-59
2022/02/01 05:42:46;;;;;;;12.05;5.13;;;;;;;;;;5013974;28;20127;-55
2022/02/01 05:45:12;;;;;;;;;;;;;;;;;;5014094;28;20085;-59
2022/02/01 05:47:40;;;;;;;13.40;5.90;;;;;;;;;;5013310;28;19928;-58
2022/02/01 05:50:08;;;;;;;14.30;6.68;;;;;;;;;;5013827;28;20100;-56
2022/02/01 05:52:35;;;;;;;14.65;6.32;;;;;;;;;;5013676;28;20049;-57
2022/02/01 05:55:02;;;;;;;13.75;6.20;;;;;;;;;;5012938;28;20054;-58
2022/02/01 05:57:30;;;;;;;15.65;7.18;;;;;;;;;;5013369;28;20050;-59
2022/02/01 05:59:58;;;;;;;16.85;7.43;;;;;;;;;;5013426;28;20066;-58
2022/02/01 06:02:25;;;;;;;14.68;7.57;;;;;;;;;;5013385;28;20056;-59
2022/02/01 06:04:52;;;;;;;16.08;7.28;;;;;;;;;;5013408;28;20387;-59
2022/02/01 06:07:19;;;;;;;17.40;8.20;;;;;;;;;;5013255;28;20056;-59
2022/02/01 06:09:46;;;;;;;15.35;7.10;;;;;;;;;;5013497;28;20060;-59
2022/02/01 06:12:13;;;;;;;16.60;8.07;;;;;;;;;;5013232;28;20049;-61
2022/02/01 06:14:41;;;;;;;14.48;7.10;;;;;;;;;;5013167;28;20132;-60
2022/02/01 06:17:09;;;;;;;15.05;8.40;;;;;;;;;;5013093;28;20137;-60
2022/02/01 06:19:36;;;;;;;17.90;7.50;;;;;;;;;;5013162;28;20054;-60
2022/02/01 06:22:03;;;;;;;17.83;7.00;;;;;;;;;;5013103;28;20132;-60
2022/02/01 06:24:31;;;;;;;14.48;7.38;;;;;;;;;;5013048;28;20521;-60
2022/02/01 06:26:59;;;;;;;15.23;6.88;;;;;;;;;;5012822;28;20054;-61
2022/02/01 06:29:26;;;;;;;13.77;6.55;;;;;;;;;;5012949;28;20060;-61
2022/02/01 06:31:55;;;;;;;15.10;7.03;;;;;;;;;;5012981;28;20049;-56
2022/02/01 06:34:22;;;;;;;13.00;6.40;;;;;;;;;;5012891;28;20056;-59
2022/02/01 06:36:49;;;;;;;14.02;6.38;;;;;;;;;;5012628;28;20049;-58
2022/02/01 06:39:16;;;;;;;14.60;6.75;;;;;;;;;;5012327;28;20054;-59
2022/02/01 06:41:43;;;;;;;14.75;6.47;;;;;;;;;;5012854;28;20046;-60
2022/02/01 06:44:10;;;;;;;14.65;7.35;;;;;;;;;;5006168;28;20081;-59
2022/02/01 06:46:37;;;;;;;14.60;6.55;;;;;;;;;;5012437;28;20108;-59
2022/02/01 06:49:11;;;;;;;15.45;7.50;;;;;;;;;;4996269;28;20533;-60
2022/02/01 06:51:38;;;;;;;15.82;7.03;;;;;;;;;;4996268;28;20071;-59
2022/02/01 06:54:05;;;;;;;14.80;7.25;;;;;;;;;;5010261;28;20054;-60
2022/02/01 06:56:33;;;;;;;15.13;7.38;;;;;;;;;;4992742;28;20109;-60
2022/02/01 06:59:02;;;;;;;14.00;6.63;;;;;;;;;;5000225;28;20712;-59
2022/02/01 07:01:30;;;;;;;12.57;6.32;;;;;;;;;;5012268;28;20054;-59
2022/02/01 07:03:57;;;;;;;12.48;6.10;;;;;;;;;;5012798;28;20491;-60
2022/02/01 07:06:26;;;;;;;10.10;5.10;;;;;;;;;;5012421;28;20056;-60
2022/02/01 07:08:54;;;;;;;9.35;4.72;;;;;;;;;;5012313;28;20060;-60
2022/02/01 07:11:22;;;;;;;10.57;5.13;;;;;;;;;;5012331;28;20447;-59
2022/02/01 07:13:49;;;;;;;10.05;4.85;;;;;;;;;;5012189;28;20056;-60
2022/02/01 07:16:17;;;;;;;8.80;4.20;;;;;;;;;;5012556;28;20050;-61
2022/02/01 07:18:44;;;;;;;8.70;4.88;;;;;;;;;;5012289;28;20388;-59
2022/02/01 07:21:12;;;;;;;10.45;4.68;;;;;;;;;;5012302;28;20053;-60
2022/02/01 07:23:40;;;;;;;10.57;4.57;;;;;;;;;;5012592;28;20470;-59
2022/02/01 07:26:10;;;;;;;8.90;4.05;;;;;;;;;;5012317;28;20499;-59
2022/02/01 07:28:38;;;;;;;11.85;5.10;;;;;;;;;;5011893;28;20046;-60
2022/02/01 07:31:05;;;;;;;13.23;4.32;;;;;;;;;;5012447;28;20136;-62
2022/02/01 07:33:32;;;;;;;12.98;5.15;;;;;;;;;;5012046;28;20125;-61
2022/02/01 07:36:01;;;;;;;16.00;4.88;;;;;;;;;;5012732;28;20487;-62
2022/02/01 07:38:28;;;;;;;10.63;4.43;;;;;;;;;;5012563;28;20491;-62
2022/02/01 07:40:58;;;;;;;15.10;4.10;;;;;;;;;;5012299;28;20486;-60
2022/02/01 07:43:30;;;;;;;10.13;3.72;;;;;;;;;;5012215;28;20050;-61
2022/02/01 07:45:59;;;;;;;17.92;5.22;;;;;;;;;;5012339;28;20058;-61
2022/02/01 07:48:26;;;;;;;14.63;4.90;;;;;;;;;;5012139;28;20085;-60
2022/02/01 07:50:53;;;;;;;13.38;5.00;;;;;;;;;;5012074;28;20388;-61
2022/02/01 07:53:20;;;;;;;14.45;4.38;;;;;;;;;;5012315;28;20056;-61
2022/02/01 07:55:47;;;;;;;15.52;4.70;;;;;;;;;;5011901;28;20046;-63
2022/02/01 07:58:16;;;;;;;15.80;5.13;;;;;;;;;;5011662;28;20050;-59
2022/02/01 08:00:43;;;;;;;16.75;4.47;;;;;;;;;;5011781;28;20085;-60
2022/02/01 08:03:12;;;;;;;11.80;4.18;;;;;;;;;;5012095;28;20422;-60
2022/02/01 08:05:40;;;;;;;12.00;4.25;;;;;;;;;;5012097;28;20161;-59
2022/02/01 08:08:07;;;;;;;14.10;3.75;;;;;;;;;;4997735;28;20081;-61
2022/02/01 08:10:40;;;;;;;14.02;3.97;;;;;;;;;;4990578;28;20058;-60
2022/02/01 08:19:07;;;;;;;17.92;4.15;;;;;;;;;;5049020;28;20502;-59
2022/02/01 08:21:42;;;;;;;13.57;3.72;;;;;;;;;;5044997;28;20310;-58
2022/02/01 08:24:09;;;;;;;16.92;3.83;;;;;;;;;;5101494;27;20046;-58
2022/02/01 08:26:37;;;;;;;15.65;3.95;;;;;;;;;;5149284;27;20150;-57
2022/02/01 08:29:04;;;;;;;11.13;3.53;;;;;;;;;;5148789;27;20039;-59
2022/02/01 08:31:33;;;;;;;12.23;5.28;;;;;;;;;;5148965;27;20147;-58
2022/02/01 08:34:00;;;;;;;12.25;3.83;;;;;;;;;;5148861;27;20051;-57
2022/02/01 08:36:27;;;;;;;16.95;3.83;;;;;;;;;;5148523;27;20070;-59
2022/02/01 08:38:55;;;;;;;13.73;3.75;;;;;;;;;;5148499;27;20051;-59
2022/02/01 08:41:22;;;;;;;11.40;3.95;;;;;;;;;;5148446;27;20068;-60
2022/02/01 08:43:49;;;;;;;14.65;4.30;;;;;;;;;;5148763;27;20058;-59
2022/02/01 08:46:18;;;;;;;14.90;3.80;;;;;;;;;;5148298;27;20054;-59
2022/02/01 08:48:46;;;;;;;14.82;3.47;;;;;;;;;;5148539;27;20139;-60
2022/02/01 08:51:15;;;;;;;15.57;3.65;;;;;;;;;;5148054;27;20046;-58
2022/02/01 08:53:54;;;;;;;12.63;3.42;;;;;;;;;;5148412;27;20058;-56
2022/02/01 08:59:13;;;;;;;13.10;3.13;;;;;;;;;;5110974;27;20118;-61
2022/02/01 09:01:40;;;;;;;13.38;3.78;;;;;;;;;;5148287;27;20059;-60
2022/02/01 09:04:09;;;;;;;17.35;4.75;;;;;;;;;;5148443;27;20138;-59
2022/02/01 09:06:36;;;;;;;15.95;4.95;;;;;;;;;;5147979;27;20047;-59
2022/02/01 09:09:03;;;;;;;12.05;3.88;;;;;;;;;;5148389;27;20384;-57
2022/02/01 09:11:30;;;;;;;16.60;4.85;;;;;;;;;;5148264;27;20086;-59
2022/02/01 09:13:57;;;;;;;13.05;3.25;;;;;;;;;;5148258;27;20051;-58
2022/02/01 09:16:24;;;;;;;12.90;3.58;;;;;;;;;;5148256;27;20051;-58
2022/02/01 09:18:51;;;;;;;15.60;3.90;;;;;;;;;;5148377;27;20088;-58
2022/02/01 09:21:19;;;;;;;12.98;3.55;;;;;;;;;;5148116;27;20101;-60
2022/02/01 09:23:46;;;;;;;11.95;3.45;;;;;;;;;;5147921;27;20042;-59
2022/02/01 09:26:14;;;;;;;13.52;3.42;;;;;;;;;;5140806;27;20070;-59
2022/02/01 09:28:40;;;;;;;10.40;2.92;;;;;;;;;;5134110;27;20051;-56
2022/02/01 09:31:09;;;;;;;14.55;3.92;;;;;;;;;;5133866;27;20083;-60
2022/02/01 09:33:36;;;;;;;13.65;2.78;;;;;;;;;;5133644;27;20051;-57
2022/02/01 09:36:04;;;;;;;15.15;3.90;;;;;;;;;;5134254;27;20050;-59
2022/02/01 09:38:34;;;;;;;14.45;4.45;;;;;;;;;;5133503;27;20054;-59
2022/02/01 09:41:02;;;;;;;11.40;3.33;;;;;;;;;;5134202;27;20047;-59
2022/02/01 09:43:29;;;;;;;9.85;3.13;;;;;;;;;;5133996;27;20043;-60
2022/02/01 09:46:00;;;;;;;9.88;2.80;;;;;;;;;;5134195;27;20469;-60
2022/02/01 09:48:28;;;;;;;8.85;2.65;;;;;;;;;;5133487;27;20051;-64
2022/02/01 09:50:55;;;;;;;11.75;3.00;;;;;;;;;;5133533;27;20046;-65
2022/02/01 09:53:22;;;;;;;8.82;2.60;;;;;;;;;;5133765;27;20055;-65
2022/02/01 09:55:50;;;;;;;9.07;2.17;;;;;;;;;;5133520;27;20047;-61
2022/02/01 09:58:17;;;;;;;13.57;2.60;;;;;;;;;;5133023;27;20049;-58
2022/02/01 10:00:51;;;;;;;13.73;3.53;;;;;;;;;;5133523;27;20054;-60
2022/02/01 10:03:20;;;;;;;12.38;2.88;;;;;;;;;;5133935;27;20411;-60
2022/02/01 10:06:06;;;;;;;14.82;3.08;;;;;;;;;;5133283;27;20061;-59
2022/02/01 10:08:33;;;;;;;9.07;2.30;;;;;;;;;;5133352;27;20055;-59
2022/02/01 10:11:02;;;;;;;13.75;2.63;;;;;;;;;;5133925;27;20047;-59
2022/02/01 10:13:33;;;;;;;11.07;2.90;;;;;;;;;;5133831;27;20051;-61
2022/02/01 10:16:07;;;;;;;9.50;2.30;;;;;;;;;;5132559;27;20047;-60
2022/02/01 10:18:35;;;;;;;12.15;3.33;;;;;;;;;;5133000;27;20082;-59
2022/02/01 10:21:06;;;;;;;6.88;2.50;;;;;;;;;;5133236;27;20051;-58
2022/02/01 10:23:35;;;;;;;11.55;2.58;;;;;;;;;;5133299;27;20110;-59
2022/02/01 10:26:06;;;;;;;10.90;2.40;;;;;;;;;;5132940;27;20065;-58
2022/02/01 10:28:43;;;;;;;11.25;3.05;;;;;;;;;;5132532;27;20522;-60
2022/02/01 10:31:20;;;;;;;5.93;1.95;;;;;;;;;;5132720;27;20110;-59
2022/02/01 10:34:14;;;;;;;5.75;2.00;;;;;;;;;;5132968;27;20304;-60
2022/02/01 10:36:42;;;;;;;16.95;3.30;;;;;;;;;;5132516;27;20126;-59
2022/02/01 10:39:21;;;;;;;8.65;2.38;;;;;;;;;;5131794;27;20450;-60
2022/02/01 10:41:58;;;;;;;7.22;2.25;;;;;;;;;;5132847;27;20043;-60
2022/02/01 10:44:38;;;;;;;9.10;2.38;;;;;;;;;;5132633;27;20043;-60
2022/02/01 10:47:06;;;;;;;9.45;1.98;;;;;;;;;;5132261;27;20043;-60
2022/02/01 10:49:34;;;;;;;6.97;2.17;;;;;;;;;;5132248;27;20059;-58
2022/02/01 10:52:04;;;;;;;8.57;2.10;;;;;;;;;;5132357;27;20047;-60
2022/02/01 10:54:32;;;;;;;12.57;2.25;;;;;;;;;;5132671;27;20488;-59
2022/02/01 10:57:02;;;;;;;6.13;1.90;;;;;;;;;;5132456;27;20126;-58
2022/02/01 10:59:29;;;;;;;6.57;2.30;;;;;;;;;;5132151;27;20042;-59
2022/02/01 11:01:58;;;;;;;6.63;2.35;;;;;;;;;;5131991;27;20393;-60
2022/02/01 11:04:27;;;;;;;7.85;2.13;;;;;;;;;;5131685;27;20062;-61
2022/02/01 11:06:54;;;;;;;6.82;2.00;;;;;;;;;;5132125;27;20428;-64
2022/02/01 11:09:23;;;;;;;8.05;2.22;;;;;;;;;;5131556;27;20047;-59
2022/02/01 11:11:52;;;;;;;13.25;2.40;;;;;;;;;;5132341;27;20070;-66
2022/02/01 11:14:25;;;;;;;7.97;2.20;;;;;;;;;;5131806;27;20051;-63
2022/02/01 11:17:02;;;;;;;9.73;2.78;;;;;;;;;;5131356;27;20047;-64
2022/02/01 11:19:30;;;;;;;7.53;1.90;;;;;;;;;;5132033;27;20389;-63
2022/02/01 11:21:57;;;;;;;6.68;1.85;;;;;;;;;;5132232;27;20125;-63
2022/02/01 11:24:32;;;;;;;7.18;2.65;;;;;;;;;;5131585;27;20047;-61
2022/02/01 11:27:14;;;;;;;8.00;2.22;;;;;;;;;;5131537;27;20462;-60
2022/02/01 11:32:34;;;;;;;5.95;2.10;;;;;;;;;;5110915;27;20059;-59
2022/02/01 11:35:04;;;;;;;8.20;2.35;;;;;;;;;;5131473;27;20491;-61
2022/02/01 11:37:30;;;;;;;8.98;2.70;;;;;;;;;;5131246;27;20051;-60
2022/02/01 11:39:58;;;;;;;9.98;2.25;;;;;;;;;;5131405;27;20039;-61
2022/02/01 11:42:32;;;;;;;7.55;2.45;;;;;;;;;;5131585;27;20051;-60
2022/02/01 11:45:02;;;;;;;7.18;2.33;;;;;;;;;;5131611;27;20520;-61
2022/02/01 11:47:33;;;;;;;6.72;2.22;;;;;;;;;;5131444;27;20047;-60
2022/02/01 11:50:11;;;;;;;8.73;2.53;;;;;;;;;;5131582;27;20051;-59
2022/02/01 11:52:44;;;;;;;8.93;2.55;;;;;;;;;;5131332;27;20445;-60
2022/02/01 11:55:12;;;;;;;7.18;2.17;;;;;;;;;;5131283;27;20407;-60
2022/02/01 11:57:42;;;;;;;4.75;1.80;;;;;;;;;;5131101;27;20047;-60
2022/02/01 12:00:18;;;;;;;7.72;2.50;;;;;;;;;;5131502;27;20524;-60
2022/02/01 12:02:49;;;;;;;8.77;2.20;;;;;;;;;;5131276;27;20074;-60
2022/02/01 12:05:19;;;;;;;9.45;2.60;;;;;;;;;;5131102;27;20119;-59
2022/02/01 12:08:01;;;;;;;9.83;2.87;;;;;;;;;;5131336;27;20055;-60
2022/02/01 12:10:28;;;;;;;6.28;2.90;;;;;;;;;;5131236;27;20053;-59
2022/02/01 12:12:57;;;;;;;8.27;2.22;;;;;;;;;;5131276;28;20553;-60
2022/02/01 12:15:31;;;;;;;6.65;2.33;;;;;;;;;;5130787;28;20103;-59
2022/02/01 12:18:06;;;;;;;6.25;2.10;;;;;;;;;;5130634;28;20043;-60
2022/02/01 12:20:35;;;;;;;9.48;2.33;;;;;;;;;;5130764;28;20045;-59
2022/02/01 12:23:27;;;;;;;6.93;2.25;;;;;;;;;;5131084;28;20122;-58
2022/02/01 12:25:54;;;;;;;5.28;2.25;;;;;;;;;;5105051;28;20066;-60
2022/02/01 12:28:23;;;;;;;7.93;2.50;;;;;;;;;;5113419;28;20047;-59
2022/02/01 12:30:53;;;;;;;7.75;2.20;;;;;;;;;;5120078;28;20055;-60
2022/02/01 12:33:22;;;;;;;6.03;2.08;;;;;;;;;;5120438;27;20039;-60
2022/02/01 12:35:53;;;;;;;7.20;2.13;;;;;;;;;;5127707;28;20043;-59
2022/02/01 12:38:26;;;;;;;7.50;2.38;;;;;;;;;;5130723;28;20047;-59
2022/02/01 12:40:58;;;;;;;7.93;2.63;;;;;;;;;;5121923;28;20051;-58
2022/02/01 12:43:28;;;;;;;4.25;2.00;;;;;;;;;;5120000;28;20054;-58
2022/02/01 12:46:01;;;;;;;8.20;2.33;;;;;;;;;;5127661;28;20572;-60
2022/02/01 12:48:28;;;;;;;5.30;2.13;;;;;;;;;;5119293;28;20059;-63
2022/02/01 12:50:57;;;;;;;7.22;2.20;;;;;;;;;;5117027;28;20833;-60
2022/02/01 12:53:24;;;;;;;6.63;2.58;;;;;;;;;;5120559;28;20054;-59
2022/02/01 12:55:51;;;;;;;7.38;3.13;;;;;;;;;;5118641;28;20131;-60
2022/02/01 12:58:19;;;;;;;6.82;2.60;;;;;;;;;;5111817;28;20510;-59
2022/02/01 13:00:51;;;;;;;5.63;2.28;;;;;;;;;;5110775;28;20047;-60
2022/02/01 13:03:20;;;;;;;5.57;1.90;;;;;;;;;;5113996;28;20055;-60
2022/02/01 13:05:47;;;;;;;5.32;2.40;;;;;;;;;;5114022;28;20055;-60
2022/02/01 13:16:39;;;;;;;10.65;3.33;;;;;;;;;;5102673;28;20518;-60
2022/02/01 13:21:53;;;;;;;4.85;2.65;;;;;;;;;;5127483;27;20403;-61
2022/02/01 13:24:30;;;;;;;6.78;2.70;;;;;;;;;;5134256;27;20049;-61
2022/02/01 13:26:57;;;;;;;5.85;2.55;;;;;;;;;;5133990;27;20126;-60
2022/02/01 13:29:24;;;;;;;4.95;2.10;;;;;;;;;;5125029;27;20086;-61
2022/02/01 13:31:53;;;;;;;9.55;2.58;;;;;;;;;;5113274;28;20043;-61
2022/02/01 13:34:28;;;;;;;6.70;1.92;;;;;;;;;;5113665;28;20492;-60
2022/02/01 13:36:57;;;;;;;6.50;2.15;;;;;;;;;;5112947;28;20047;-61
2022/02/01 13:39:27;;;;;;;5.32;2.35;;;;;;;;;;5113184;28;20056;-61
2022/02/01 13:41:59;;;;;;;7.68;2.20;;;;;;;;;;5113305;28;20047;-60
2022/02/01 13:44:27;;;;;;;5.97;2.00;;;;;;;;;;5113578;28;20444;-58
2022/02/01 13:47:03;;;;;;;3.22;1.85;;;;;;;;;;5113151;28;20523;-61
2022/02/01 13:49:32;;;;;;;5.50;1.80;;;;;;;;;;5113068;28;20058;-57
2022/02/01 13:51:59;;;;;;;5.75;1.73;;;;;;;;;;5112803;28;20047;-58
2022/02/01 13:54:38;;;;;;;5.47;2.03;;;;;;;;;;5113081;28;20058;-61
2022/02/01 13:57:11;;;;;;;7.50;2.40;;;;;;;;;;5112771;28;20113;-60
2022/02/01 13:59:38;;;;;;;7.18;2.50;;;;;;;;;;5112995;28;20051;-61
2022/02/01 14:02:09;;;;;;;6.47;2.20;;;;;;;;;;5113069;28;20060;-60
2022/02/01 14:04:51;;;;;;;5.70;1.90;;;;;;;;;;5113015;28;20547;-60
2022/02/01 14:07:29;;;;;;;5.35;2.35;;;;;;;;;;5112638;28;20050;-61
2022/02/01 14:10:05;;;;;;;6.03;1.98;;;;;;;;;;5112794;28;20056;-60
2022/02/01 14:13:05;;;;;;;7.60;2.05;;;;;;;;;;5112637;28;20056;-59
2022/02/01 14:26:49;;;;;;;7.68;2.40;;;;;;;;;;5112519;28;20063;-59
2022/02/01 14:32:31;;;;;;;7.47;2.75;;;;;;;;;;5112605;28;20189;-60
2022/02/01 14:34:59;;;;;;;5.78;2.28;;;;;;;;;;5112569;28;20473;-60
2022/02/01 14:37:38;;;;;;;4.45;1.83;;;;;;;;;;5111875;28;20089;-60
2022/02/01 14:43:21;;;;;;;5.22;1.70;;;;;;;;;;5053911;28;20656;-60
2022/02/01 14:45:48;;;;;;;3.42;1.30;;;;;;;;;;5112030;28;20135;-59
2022/02/01 14:48:15;;;;;;;5.97;2.30;;;;;;;;;;5112029;28;20522;-59
2022/02/01 14:50:42;;;;;;;6.38;2.10;;;;;;;;;;5112530;28;20075;-60
2022/02/01 14:53:10;;;;;;;4.65;1.67;;;;;;;;;;5112075;28;20051;-59
2022/02/01 14:55:45;;;;;;;6.35;2.38;;;;;;;;;;5112154;28;20051;-60
2022/02/01 15:04:04;;;;;;;3.88;1.55;;;;;;;;;;5028526;28;20049;-60
2022/02/01 15:12:36;;;;;;;3.63;1.58;;;;;;;;;;5111451;28;20185;-60
2022/02/01 15:15:03;;;;;;;4.03;1.40;;;;;;;;;;5111451;28;20382;-59
2022/02/01 15:17:30;;;;;;;4.05;1.80;;;;;;;;;;5111586;28;20054;-60
2022/02/01 15:19:57;;;;;;;5.28;1.35;;;;;;;;;;5111327;28;20389;-60
2022/02/01 15:22:24;;;;;;;3.92;1.70;;;;;;;;;;5111421;28;20338;-59
2022/02/01 15:24:53;;;;;;;2.92;1.83;;;;;;;;;;5111048;28;20051;-59
2022/02/01 15:27:20;;;;;;;4.32;1.58;;;;;;;;;;5111068;28;20064;-59
2022/02/01 15:29:47;;;;;;;3.92;1.33;;;;;;;;;;5111764;28;20485;-62
2022/02/01 15:32:15;;;;;;;3.58;1.60;;;;;;;;;;5111872;28;20408;-60
2022/02/01 15:34:43;;;;;;;4.13;1.67;;;;;;;;;;5119282;27;20043;-59
2022/02/01 15:37:10;;;;;;;3.72;1.10;;;;;;;;;;5121764;27;20047;-60
2022/02/01 15:59:06;;;;;;;2.95;1.23;;;;;;;;;;5113258;27;20055;-61
2022/02/01 16:01:41;;;;;;;1.92;0.90;;;;;;;;;;5111039;28;20093;-59
2022/02/01 16:04:08;;;;;;;4.63;1.33;;;;;;;;;;5110877;28;20063;-60
2022/02/01 16:06:37;;;;;;;4.40;1.23;;;;;;;;;;5118897;27;20428;-61
2022/02/01 16:09:15;;;;;;;5.20;1.73;;;;;;;;;;5121698;27;20047;-60
2022/02/01 16:11:44;;;;;;;3.97;1.25;;;;;;;;;;5121473;27;20098;-61
2022/02/01 16:14:12;;;;;;;3.42;1.17;;;;;;;;;;5123052;28;20205;-60
2022/02/01 16:16:39;;;;;;;4.25;1.55;;;;;;;;;;5130586;28;20047;-60
2022/02/01 16:19:06;;;;;;;4.53;1.27;;;;;;;;;;5130937;28;20047;-60
2022/02/01 16:21:34;;;;;;;5.18;1.83;;;;;;;;;;5130338;28;20055;-61
2022/02/01 16:24:02;;;;;;;3.75;1.35;;;;;;;;;;5126223;27;20058;-60
2022/02/01 16:26:29;;;;;;;3.53;1.10;;;;;;;;;;5121254;28;20051;-56
2022/02/01 16:28:57;;;;;;;3.53;1.33;;;;;;;;;;5119675;28;20039;-61
2022/02/01 16:31:29;;;;;;;3.35;1.25;;;;;;;;;;5119703;27;20499;-61
2022/02/01 16:33:58;;;;;;;2.45;0.98;;;;;;;;;;5119942;28;20056;-60
2022/02/01 16:36:26;;;;;;;2.28;1.00;;;;;;;;;;5121598;27;20047;-60
2022/02/01 16:38:53;;;;;;;4.40;1.95;;;;;;;;;;5123341;27;20063;-61
2022/02/01 16:41:22;;;;;;;4.63;1.40;;;;;;;;;;5124460;27;20039;-58
2022/02/01 16:43:49;;;;;;;4.13;0.93;;;;;;;;;;5125182;27;20047;-60
2022/02/01 16:46:16;;;;;;;2.05;1.00;;;;;;;;;;5122628;27;20638;-60
2022/02/01 16:48:45;;;;;;;3.53;1.20;;;;;;;;;;5124467;27;20054;-61
2022/02/01 16:51:12;;;;;;;2.42;1.05;;;;;;;;;;5123044;27;20058;-60
2022/02/01 16:53:43;;;;;;;3.30;1.55;;;;;;;;;;5121539;27;20051;-60
2022/02/01 16:56:15;;;;;;;1.90;0.88;;;;;;;;;;5124665;27;20062;-61
2022/02/01 16:58:49;;;;;;;3.15;1.05;;;;;;;;;;5124233;27;20040;-56
2022/02/01 17:01:17;;;;;;;3.47;1.20;;;;;;;;;;5123179;27;20092;-60
2022/02/01 17:03:45;;;;;;;3.05;0.98;;;;;;;;;;5123383;27;20039;-61